sensor_id;sensor_type;location;lat;lon;timestamp;P1;durP1;ratioP1;P2;durP2;ratioP2
35028;SDS011;35394;54.282;10.070;2024-02-15T00:00:25;3.40;;;2.70;;
35028;SDS011;35394;54.282;10.070;2024-02-15T00:00:57;3.63;;;2.90;;
35028;SDS011;35394;54.282;10.070;2024-02-15T00:01:29;3.60;;;3.00;;
35028;SDS011;35394;54.282;10.070;2024-02-15T00:02:00;3.60;;;2.88;;
35028;SDS011;35394;54.282;10.070;2024-02-15T00:02:30;4.07;;;3.20;;
35028;SDS011;35394;54.282;10.070;2024-02-15T00:03:01;3.40;;;2.80;;
35028;SDS011;35394;54.282;10.070;2024-02-15T00:03:32;3.17;;;2.60;;
35028;SDS011;35394;54.282;10.070;2024-02-15T00:04:02;3.20;;;2.60;;
35028;SDS011;35394;54.282;10.070;2024-02-15T00:04:33;3.47;;;2.70;;
35028;SDS011;35394;54.282;10.070;2024-02-15T00:05:04;3.30;;;2.72;;
35028;SDS011;35394;54.282;10.070;2024-02-15T00:05:35;3.47;;;2.80;;
35028;SDS011;35394;54.282;10.070;2024-02-15T00:06:06;3.42;;;2.70;;
35028;SDS011;35394;54.282;10.070;2024-02-15T00:06:37;3.43;;;2.73;;
35028;SDS011;35394;54.282;10.070;2024-02-15T00:07:07;3.55;;;2.80;;
35028;SDS011;35394;54.282;10.070;2024-02-15T00:07:38;3.30;;;2.70;;
35028;SDS011;35394;54.282;10.070;2024-02-15T00:08:09;3.10;;;2.60;;
35028;SDS011;35394;54.282;10.070;2024-02-15T00:08:39;3.50;;;2.90;;
35028;SDS011;35394;54.282;10.070;2024-02-15T00:09:10;3.45;;;2.85;;
35028;SDS011;35394;54.282;10.070;2024-02-15T00:09:40;4.60;;;3.10;;
35028;SDS011;35394;54.282;10.070;2024-02-15T00:10:11;3.72;;;3.17;;
35028;SDS011;35394;54.282;10.070;2024-02-15T00:10:41;3.60;;;3.00;;
35028;SDS011;35394;54.282;10.070;2024-02-15T00:11:12;3.70;;;2.90;;
35028;SDS011;35394;54.282;10.070;2024-02-15T00:11:43;3.67;;;2.90;;
35028;SDS011;35394;54.282;10.070;2024-02-15T00:12:14;3.97;;;3.17;;
35028;SDS011;35394;54.282;10.070;2024-02-15T00:12:44;4.07;;;3.40;;
35028;SDS011;35394;54.282;10.070;2024-02-15T00:13:15;3.42;;;2.92;;
35028;SDS011;35394;54.282;10.070;2024-02-15T00:13:46;3.60;;;3.00;;
35028;SDS011;35394;54.282;10.070;2024-02-15T00:14:16;3.47;;;2.80;;
35028;SDS011;35394;54.282;10.070;2024-02-15T00:14:47;3.50;;;2.80;;
35028;SDS011;35394;54.282;10.070;2024-02-15T00:15:18;3.88;;;3.10;;
35028;SDS011;35394;54.282;10.070;2024-02-15T00:15:49;3.83;;;3.05;;
35028;SDS011;35394;54.282;10.070;2024-02-15T00:16:20;4.22;;;3.28;;
35028;SDS011;35394;54.282;10.070;2024-02-15T00:16:51;3.88;;;3.17;;
35028;SDS011;35394;54.282;10.070;2024-02-15T00:17:22;3.35;;;2.80;;
35028;SDS011;35394;54.282;10.070;2024-02-15T00:17:52;3.90;;;3.10;;
35028;SDS011;35394;54.282;10.070;2024-02-15T00:18:23;3.45;;;2.85;;
35028;SDS011;35394;54.282;10.070;2024-02-15T00:18:53;3.67;;;2.90;;
35028;SDS011;35394;54.282;10.070;2024-02-15T00:19:25;3.40;;;2.80;;
35028;SDS011;35394;54.282;10.070;2024-02-15T00:19:55;3.60;;;2.90;;
35028;SDS011;35394;54.282;10.070;2024-02-15T00:20:26;3.50;;;2.97;;
35028;SDS011;35394;54.282;10.070;2024-02-15T00:20:57;3.80;;;3.00;;
35028;SDS011;35394;54.282;10.070;2024-02-15T00:21:30;3.33;;;2.70;;
35028;SDS011;35394;54.282;10.070;2024-02-15T00:22:00;3.45;;;2.70;;
35028;SDS011;35394;54.282;10.070;2024-02-15T00:22:31;3.67;;;2.85;;
35028;SDS011;35394;54.282;10.070;2024-02-15T00:23:03;3.53;;;2.80;;
35028;SDS011;35394;54.282;10.070;2024-02-15T00:23:34;3.08;;;2.50;;
35028;SDS011;35394;54.282;10.070;2024-02-15T00:24:05;3.17;;;2.67;;
35028;SDS011;35394;54.282;10.070;2024-02-15T00:24:39;3.67;;;2.90;;
35028;SDS011;35394;54.282;10.070;2024-02-15T00:25:11;3.78;;;2.95;;
35028;SDS011;35394;54.282;10.070;2024-02-15T00:25:43;3.10;;;2.65;;
35028;SDS011;35394;54.282;10.070;2024-02-15T00:26:14;3.58;;;2.83;;
35028;SDS011;35394;54.282;10.070;2024-02-15T00:26:45;3.33;;;2.75;;
35028;SDS011;35394;54.282;10.070;2024-02-15T00:27:17;3.70;;;2.90;;
35028;SDS011;35394;54.282;10.070;2024-02-15T00:27:48;3.50;;;2.80;;
35028;SDS011;35394;54.282;10.070;2024-02-15T00:28:19;3.50;;;2.83;;
35028;SDS011;35394;54.282;10.070;2024-02-15T00:28:50;3.50;;;2.83;;
35028;SDS011;35394;54.282;10.070;2024-02-15T00:29:20;3.77;;;3.10;;
35028;SDS011;35394;54.282;10.070;2024-02-15T00:29:51;3.70;;;3.10;;
35028;SDS011;35394;54.282;10.070;2024-02-15T00:30:21;3.40;;;2.90;;
35028;SDS011;35394;54.282;10.070;2024-02-15T00:30:52;3.75;;;3.10;;
35028;SDS011;35394;54.282;10.070;2024-02-15T00:31:23;3.72;;;2.95;;
35028;SDS011;35394;54.282;10.070;2024-02-15T00:31:53;3.77;;;3.00;;
35028;SDS011;35394;54.282;10.070;2024-02-15T00:32:25;3.85;;;3.08;;
35028;SDS011;35394;54.282;10.070;2024-02-15T00:32:55;3.57;;;2.90;;
35028;SDS011;35394;54.282;10.070;2024-02-15T00:33:26;3.90;;;3.30;;
35028;SDS011;35394;54.282;10.070;2024-02-15T00:33:56;3.70;;;2.90;;
35028;SDS011;35394;54.282;10.070;2024-02-15T00:34:28;3.60;;;2.90;;
35028;SDS011;35394;54.282;10.070;2024-02-15T00:34:59;3.70;;;3.00;;
35028;SDS011;35394;54.282;10.070;2024-02-15T00:35:29;3.75;;;2.83;;
35028;SDS011;35394;54.282;10.070;2024-02-15T00:36:00;3.57;;;3.00;;
35028;SDS011;35394;54.282;10.070;2024-02-15T00:36:32;3.75;;;3.15;;
35028;SDS011;35394;54.282;10.070;2024-02-15T00:37:03;3.42;;;2.78;;
35028;SDS011;35394;54.282;10.070;2024-02-15T00:37:37;3.33;;;2.80;;
35028;SDS011;35394;54.282;10.070;2024-02-15T00:38:08;3.27;;;2.63;;
35028;SDS011;35394;54.282;10.070;2024-02-15T00:38:39;3.30;;;2.70;;
35028;SDS011;35394;54.282;10.070;2024-02-15T00:39:10;3.20;;;2.67;;
35028;SDS011;35394;54.282;10.070;2024-02-15T00:39:41;3.63;;;3.00;;
35028;SDS011;35394;54.282;10.070;2024-02-15T00:40:13;3.30;;;2.72;;
35028;SDS011;35394;54.282;10.070;2024-02-15T00:40:43;3.33;;;2.72;;
35028;SDS011;35394;54.282;10.070;2024-02-15T00:41:15;3.40;;;2.58;;
35028;SDS011;35394;54.282;10.070;2024-02-15T00:41:46;3.40;;;2.80;;
35028;SDS011;35394;54.282;10.070;2024-02-15T00:42:17;3.40;;;2.70;;
35028;SDS011;35394;54.282;10.070;2024-02-15T00:42:47;3.50;;;2.80;;
35028;SDS011;35394;54.282;10.070;2024-02-15T00:43:18;3.60;;;2.85;;
35028;SDS011;35394;54.282;10.070;2024-02-15T00:43:49;3.35;;;2.70;;
35028;SDS011;35394;54.282;10.070;2024-02-15T00:44:20;3.28;;;2.63;;
35028;SDS011;35394;54.282;10.070;2024-02-15T00:44:50;3.33;;;2.67;;
35028;SDS011;35394;54.282;10.070;2024-02-15T00:45:21;3.30;;;2.80;;
35028;SDS011;35394;54.282;10.070;2024-02-15T00:45:51;3.40;;;2.80;;
35028;SDS011;35394;54.282;10.070;2024-02-15T00:46:22;3.40;;;2.70;;
35028;SDS011;35394;54.282;10.070;2024-02-15T00:46:52;3.60;;;2.80;;
35028;SDS011;35394;54.282;10.070;2024-02-15T00:47:23;3.30;;;2.60;;
35028;SDS011;35394;54.282;10.070;2024-02-15T00:47:54;3.33;;;2.60;;
35028;SDS011;35394;54.282;10.070;2024-02-15T00:48:26;3.03;;;2.60;;
35028;SDS011;35394;54.282;10.070;2024-02-15T00:48:58;3.30;;;2.70;;
35028;SDS011;35394;54.282;10.070;2024-02-15T00:49:29;4.07;;;2.90;;
35028;SDS011;35394;54.282;10.070;2024-02-15T00:50:00;3.03;;;2.57;;
35028;SDS011;35394;54.282;10.070;2024-02-15T00:50:30;3.55;;;2.88;;
35028;SDS011;35394;54.282;10.070;2024-02-15T00:51:01;3.40;;;2.87;;
35028;SDS011;35394;54.282;10.070;2024-02-15T00:51:32;3.30;;;2.70;;
35028;SDS011;35394;54.282;10.070;2024-02-15T00:52:04;3.35;;;2.80;;
35028;SDS011;35394;54.282;10.070;2024-02-15T00:52:34;3.25;;;2.67;;
35028;SDS011;35394;54.282;10.070;2024-02-15T00:53:05;3.40;;;2.77;;
35028;SDS011;35394;54.282;10.070;2024-02-15T00:53:36;3.78;;;3.05;;
35028;SDS011;35394;54.282;10.070;2024-02-15T00:54:06;3.27;;;2.60;;
35028;SDS011;35394;54.282;10.070;2024-02-15T00:54:37;3.30;;;2.70;;
35028;SDS011;35394;54.282;10.070;2024-02-15T00:55:07;3.20;;;2.60;;
35028;SDS011;35394;54.282;10.070;2024-02-15T00:55:38;3.63;;;2.87;;
35028;SDS011;35394;54.282;10.070;2024-02-15T00:56:08;3.33;;;2.70;;
35028;SDS011;35394;54.282;10.070;2024-02-15T00:56:39;3.30;;;2.67;;
35028;SDS011;35394;54.282;10.070;2024-02-15T00:57:09;3.13;;;2.60;;
35028;SDS011;35394;54.282;10.070;2024-02-15T00:57:40;3.53;;;2.77;;
35028;SDS011;35394;54.282;10.070;2024-02-15T00:58:10;3.20;;;2.60;;
35028;SDS011;35394;54.282;10.070;2024-02-15T00:58:41;3.43;;;2.70;;
35028;SDS011;35394;54.282;10.070;2024-02-15T00:59:12;3.38;;;2.67;;
35028;SDS011;35394;54.282;10.070;2024-02-15T00:59:42;3.20;;;2.37;;
35028;SDS011;35394;54.282;10.070;2024-02-15T01:00:13;3.30;;;2.53;;
35028;SDS011;35394;54.282;10.070;2024-02-15T01:00:44;3.33;;;2.60;;
35028;SDS011;35394;54.282;10.070;2024-02-15T01:01:15;3.00;;;2.45;;
35028;SDS011;35394;54.282;10.070;2024-02-15T01:01:45;3.43;;;2.77;;
35028;SDS011;35394;54.282;10.070;2024-02-15T01:02:17;3.40;;;2.63;;
35028;SDS011;35394;54.282;10.070;2024-02-15T01:02:48;3.70;;;2.80;;
35028;SDS011;35394;54.282;10.070;2024-02-15T01:03:19;3.15;;;2.60;;
35028;SDS011;35394;54.282;10.070;2024-02-15T01:03:50;3.60;;;2.97;;
35028;SDS011;35394;54.282;10.070;2024-02-15T01:04:20;3.45;;;2.78;;
35028;SDS011;35394;54.282;10.070;2024-02-15T01:04:51;3.30;;;2.47;;
35028;SDS011;35394;54.282;10.070;2024-02-15T01:05:23;3.00;;;2.50;;
35028;SDS011;35394;54.282;10.070;2024-02-15T01:05:54;3.03;;;2.60;;
35028;SDS011;35394;54.282;10.070;2024-02-15T01:06:24;3.15;;;2.53;;
35028;SDS011;35394;54.282;10.070;2024-02-15T01:06:55;3.20;;;2.50;;
35028;SDS011;35394;54.282;10.070;2024-02-15T01:07:25;3.17;;;2.60;;
35028;SDS011;35394;54.282;10.070;2024-02-15T01:07:57;3.05;;;2.47;;
35028;SDS011;35394;54.282;10.070;2024-02-15T01:08:28;3.53;;;2.78;;
35028;SDS011;35394;54.282;10.070;2024-02-15T01:08:59;3.10;;;2.50;;
35028;SDS011;35394;54.282;10.070;2024-02-15T01:09:31;3.30;;;2.60;;
35028;SDS011;35394;54.282;10.070;2024-02-15T01:10:02;3.00;;;2.50;;
35028;SDS011;35394;54.282;10.070;2024-02-15T01:10:33;2.97;;;2.40;;
35028;SDS011;35394;54.282;10.070;2024-02-15T01:11:05;3.45;;;2.85;;
35028;SDS011;35394;54.282;10.070;2024-02-15T01:11:36;3.20;;;2.60;;
35028;SDS011;35394;54.282;10.070;2024-02-15T01:12:09;3.03;;;2.50;;
35028;SDS011;35394;54.282;10.070;2024-02-15T01:12:40;2.90;;;2.42;;
35028;SDS011;35394;54.282;10.070;2024-02-15T01:13:10;3.50;;;2.83;;
35028;SDS011;35394;54.282;10.070;2024-02-15T01:13:42;3.10;;;2.58;;
35028;SDS011;35394;54.282;10.070;2024-02-15T01:14:14;2.90;;;2.40;;
35028;SDS011;35394;54.282;10.070;2024-02-15T01:14:45;3.15;;;2.55;;
35028;SDS011;35394;54.282;10.070;2024-02-15T01:15:16;3.00;;;2.40;;
35028;SDS011;35394;54.282;10.070;2024-02-15T01:15:48;3.20;;;2.60;;
35028;SDS011;35394;54.282;10.070;2024-02-15T01:16:18;3.30;;;2.70;;
35028;SDS011;35394;54.282;10.070;2024-02-15T01:16:49;3.60;;;2.70;;
35028;SDS011;35394;54.282;10.070;2024-02-15T01:17:19;3.50;;;2.70;;
35028;SDS011;35394;54.282;10.070;2024-02-15T01:17:50;3.37;;;2.80;;
35028;SDS011;35394;54.282;10.070;2024-02-15T01:18:20;3.23;;;2.53;;
35028;SDS011;35394;54.282;10.070;2024-02-15T01:18:51;3.13;;;2.47;;
35028;SDS011;35394;54.282;10.070;2024-02-15T01:19:22;3.30;;;2.77;;
35028;SDS011;35394;54.282;10.070;2024-02-15T01:19:52;3.35;;;2.60;;
35028;SDS011;35394;54.282;10.070;2024-02-15T01:20:23;3.72;;;2.80;;
35028;SDS011;35394;54.282;10.070;2024-02-15T01:20:54;3.30;;;2.60;;
35028;SDS011;35394;54.282;10.070;2024-02-15T01:21:24;3.38;;;2.70;;
35028;SDS011;35394;54.282;10.070;2024-02-15T01:21:55;3.10;;;2.47;;
35028;SDS011;35394;54.282;10.070;2024-02-15T01:22:26;3.25;;;2.65;;
35028;SDS011;35394;54.282;10.070;2024-02-15T01:22:57;3.67;;;2.80;;
35028;SDS011;35394;54.282;10.070;2024-02-15T01:23:27;3.10;;;2.53;;
35028;SDS011;35394;54.282;10.070;2024-02-15T01:23:58;3.60;;;2.80;;
35028;SDS011;35394;54.282;10.070;2024-02-15T01:24:30;3.40;;;2.70;;
35028;SDS011;35394;54.282;10.070;2024-02-15T01:25:01;3.60;;;2.80;;
35028;SDS011;35394;54.282;10.070;2024-02-15T01:25:31;3.22;;;2.50;;
35028;SDS011;35394;54.282;10.070;2024-02-15T01:26:02;3.10;;;2.47;;
35028;SDS011;35394;54.282;10.070;2024-02-15T01:26:33;3.15;;;2.50;;
35028;SDS011;35394;54.282;10.070;2024-02-15T01:27:04;3.10;;;2.50;;
35028;SDS011;35394;54.282;10.070;2024-02-15T01:27:36;3.22;;;2.42;;
35028;SDS011;35394;54.282;10.070;2024-02-15T01:28:08;3.05;;;2.47;;
35028;SDS011;35394;54.282;10.070;2024-02-15T01:28:39;2.85;;;2.25;;
35028;SDS011;35394;54.282;10.070;2024-02-15T01:29:13;3.00;;;2.47;;
35028;SDS011;35394;54.282;10.070;2024-02-15T01:29:43;3.03;;;2.40;;
35028;SDS011;35394;54.282;10.070;2024-02-15T01:30:14;3.03;;;2.40;;
35028;SDS011;35394;54.282;10.070;2024-02-15T01:30:44;3.00;;;2.50;;
35028;SDS011;35394;54.282;10.070;2024-02-15T01:31:16;2.83;;;2.30;;
35028;SDS011;35394;54.282;10.070;2024-02-15T01:31:47;2.97;;;2.30;;
35028;SDS011;35394;54.282;10.070;2024-02-15T01:32:17;2.78;;;2.20;;
35028;SDS011;35394;54.282;10.070;2024-02-15T01:32:48;2.93;;;2.33;;
35028;SDS011;35394;54.282;10.070;2024-02-15T01:33:18;2.90;;;2.28;;
35028;SDS011;35394;54.282;10.070;2024-02-15T01:33:49;3.00;;;2.40;;
35028;SDS011;35394;54.282;10.070;2024-02-15T01:34:20;2.95;;;2.40;;
35028;SDS011;35394;54.282;10.070;2024-02-15T01:34:51;2.67;;;2.17;;
35028;SDS011;35394;54.282;10.070;2024-02-15T01:35:25;2.90;;;2.50;;
35028;SDS011;35394;54.282;10.070;2024-02-15T01:35:56;2.80;;;2.30;;
35028;SDS011;35394;54.282;10.070;2024-02-15T01:36:27;2.60;;;2.10;;
35028;SDS011;35394;54.282;10.070;2024-02-15T01:36:58;2.80;;;2.30;;
35028;SDS011;35394;54.282;10.070;2024-02-15T01:37:29;2.90;;;2.30;;
35028;SDS011;35394;54.282;10.070;2024-02-15T01:37:59;2.85;;;2.30;;
35028;SDS011;35394;54.282;10.070;2024-02-15T01:38:30;2.88;;;2.30;;
35028;SDS011;35394;54.282;10.070;2024-02-15T01:39:01;2.65;;;2.15;;
35028;SDS011;35394;54.282;10.070;2024-02-15T01:39:32;3.00;;;2.37;;
35028;SDS011;35394;54.282;10.070;2024-02-15T01:40:04;2.78;;;2.20;;
35028;SDS011;35394;54.282;10.070;2024-02-15T01:40:36;2.67;;;2.30;;
35028;SDS011;35394;54.282;10.070;2024-02-15T01:41:07;2.92;;;2.30;;
35028;SDS011;35394;54.282;10.070;2024-02-15T01:41:38;2.70;;;2.20;;
35028;SDS011;35394;54.282;10.070;2024-02-15T01:42:08;2.80;;;2.20;;
35028;SDS011;35394;54.282;10.070;2024-02-15T01:42:39;3.42;;;2.67;;
35028;SDS011;35394;54.282;10.070;2024-02-15T01:43:10;3.13;;;2.50;;
35028;SDS011;35394;54.282;10.070;2024-02-15T01:43:43;3.10;;;2.40;;
35028;SDS011;35394;54.282;10.070;2024-02-15T01:44:18;2.70;;;2.20;;
35028;SDS011;35394;54.282;10.070;2024-02-15T01:44:50;2.45;;;2.03;;
35028;SDS011;35394;54.282;10.070;2024-02-15T01:45:22;2.65;;;2.20;;
35028;SDS011;35394;54.282;10.070;2024-02-15T01:45:53;3.00;;;2.30;;
35028;SDS011;35394;54.282;10.070;2024-02-15T01:46:24;2.58;;;2.20;;
35028;SDS011;35394;54.282;10.070;2024-02-15T01:46:55;2.72;;;2.30;;
35028;SDS011;35394;54.282;10.070;2024-02-15T01:47:26;2.78;;;2.20;;
35028;SDS011;35394;54.282;10.070;2024-02-15T01:47:56;2.40;;;2.00;;
35028;SDS011;35394;54.282;10.070;2024-02-15T01:48:27;2.70;;;2.10;;
35028;SDS011;35394;54.282;10.070;2024-02-15T01:48:57;2.23;;;2.00;;
35028;SDS011;35394;54.282;10.070;2024-02-15T01:49:28;2.90;;;2.20;;
35028;SDS011;35394;54.282;10.070;2024-02-15T01:49:58;2.60;;;2.15;;
35028;SDS011;35394;54.282;10.070;2024-02-15T01:50:29;2.60;;;2.17;;
35028;SDS011;35394;54.282;10.070;2024-02-15T01:51:00;2.60;;;2.10;;
35028;SDS011;35394;54.282;10.070;2024-02-15T01:51:30;2.20;;;1.87;;
35028;SDS011;35394;54.282;10.070;2024-02-15T01:52:03;2.03;;;1.80;;
35028;SDS011;35394;54.282;10.070;2024-02-15T01:52:37;2.42;;;2.00;;
35028;SDS011;35394;54.282;10.070;2024-02-15T01:53:09;2.67;;;2.15;;
35028;SDS011;35394;54.282;10.070;2024-02-15T01:53:40;2.63;;;2.00;;
35028;SDS011;35394;54.282;10.070;2024-02-15T01:54:12;2.53;;;2.00;;
35028;SDS011;35394;54.282;10.070;2024-02-15T01:54:47;2.55;;;2.10;;
35028;SDS011;35394;54.282;10.070;2024-02-15T01:55:17;2.53;;;2.07;;
35028;SDS011;35394;54.282;10.070;2024-02-15T01:55:48;2.45;;;1.85;;
35028;SDS011;35394;54.282;10.070;2024-02-15T01:56:19;2.00;;;1.80;;
35028;SDS011;35394;54.282;10.070;2024-02-15T01:56:53;2.40;;;2.00;;
35028;SDS011;35394;54.282;10.070;2024-02-15T01:57:25;2.38;;;1.90;;
35028;SDS011;35394;54.282;10.070;2024-02-15T01:57:56;2.47;;;2.00;;
35028;SDS011;35394;54.282;10.070;2024-02-15T01:58:27;2.60;;;2.00;;
35028;SDS011;35394;54.282;10.070;2024-02-15T01:59:01;2.38;;;2.00;;
35028;SDS011;35394;54.282;10.070;2024-02-15T01:59:32;2.22;;;1.88;;
35028;SDS011;35394;54.282;10.070;2024-02-15T02:00:02;2.20;;;1.90;;
35028;SDS011;35394;54.282;10.070;2024-02-15T02:00:34;2.10;;;1.90;;
35028;SDS011;35394;54.282;10.070;2024-02-15T02:01:09;2.28;;;1.98;;
35028;SDS011;35394;54.282;10.070;2024-02-15T02:01:40;2.20;;;1.90;;
35028;SDS011;35394;54.282;10.070;2024-02-15T02:02:11;2.30;;;1.90;;
35028;SDS011;35394;54.282;10.070;2024-02-15T02:02:44;2.67;;;2.13;;
35028;SDS011;35394;54.282;10.070;2024-02-15T02:03:15;2.45;;;1.90;;
35028;SDS011;35394;54.282;10.070;2024-02-15T02:03:46;2.60;;;2.03;;
35028;SDS011;35394;54.282;10.070;2024-02-15T02:04:17;2.30;;;2.00;;
35028;SDS011;35394;54.282;10.070;2024-02-15T02:04:48;2.50;;;2.10;;
35028;SDS011;35394;54.282;10.070;2024-02-15T02:05:19;2.42;;;1.90;;
35028;SDS011;35394;54.282;10.070;2024-02-15T02:05:50;2.47;;;1.98;;
35028;SDS011;35394;54.282;10.070;2024-02-15T02:06:20;2.33;;;2.00;;
35028;SDS011;35394;54.282;10.070;2024-02-15T02:06:51;2.40;;;1.90;;
35028;SDS011;35394;54.282;10.070;2024-02-15T02:07:26;2.45;;;2.00;;
35028;SDS011;35394;54.282;10.070;2024-02-15T02:07:57;2.47;;;2.00;;
35028;SDS011;35394;54.282;10.070;2024-02-15T02:08:31;2.25;;;1.90;;
35028;SDS011;35394;54.282;10.070;2024-02-15T02:09:03;2.53;;;2.00;;
35028;SDS011;35394;54.282;10.070;2024-02-15T02:09:34;2.50;;;2.00;;
35028;SDS011;35394;54.282;10.070;2024-02-15T02:10:05;2.35;;;1.90;;
35028;SDS011;35394;54.282;10.070;2024-02-15T02:10:37;2.30;;;1.92;;
35028;SDS011;35394;54.282;10.070;2024-02-15T02:11:08;2.58;;;1.90;;
35028;SDS011;35394;54.282;10.070;2024-02-15T02:11:40;2.40;;;1.92;;
35028;SDS011;35394;54.282;10.070;2024-02-15T02:12:11;2.17;;;1.80;;
35028;SDS011;35394;54.282;10.070;2024-02-15T02:12:42;2.50;;;2.10;;
35028;SDS011;35394;54.282;10.070;2024-02-15T02:13:13;2.60;;;2.00;;
35028;SDS011;35394;54.282;10.070;2024-02-15T02:13:43;2.17;;;1.90;;
35028;SDS011;35394;54.282;10.070;2024-02-15T02:14:14;2.30;;;1.80;;
35028;SDS011;35394;54.282;10.070;2024-02-15T02:14:45;2.17;;;1.85;;
35028;SDS011;35394;54.282;10.070;2024-02-15T02:15:15;2.17;;;1.88;;
35028;SDS011;35394;54.282;10.070;2024-02-15T02:15:46;2.30;;;1.90;;
35028;SDS011;35394;54.282;10.070;2024-02-15T02:16:34;2.20;;;1.83;;
35028;SDS011;35394;54.282;10.070;2024-02-15T02:17:12;2.38;;;2.00;;
35028;SDS011;35394;54.282;10.070;2024-02-15T02:17:49;2.30;;;1.83;;
35028;SDS011;35394;54.282;10.070;2024-02-15T02:18:21;2.47;;;1.92;;
35028;SDS011;35394;54.282;10.070;2024-02-15T02:18:51;2.35;;;1.90;;
35028;SDS011;35394;54.282;10.070;2024-02-15T02:19:22;2.50;;;1.95;;
35028;SDS011;35394;54.282;10.070;2024-02-15T02:19:53;2.10;;;1.80;;
35028;SDS011;35394;54.282;10.070;2024-02-15T02:20:27;2.25;;;1.88;;
35028;SDS011;35394;54.282;10.070;2024-02-15T02:20:58;2.50;;;2.10;;
35028;SDS011;35394;54.282;10.070;2024-02-15T02:21:30;2.45;;;2.00;;
35028;SDS011;35394;54.282;10.070;2024-02-15T02:22:00;2.45;;;1.92;;
35028;SDS011;35394;54.282;10.070;2024-02-15T02:22:31;2.50;;;2.00;;
35028;SDS011;35394;54.282;10.070;2024-02-15T02:23:09;2.20;;;1.95;;
35028;SDS011;35394;54.282;10.070;2024-02-15T02:23:44;2.60;;;2.10;;
35028;SDS011;35394;54.282;10.070;2024-02-15T02:24:20;2.17;;;1.77;;
35028;SDS011;35394;54.282;10.070;2024-02-15T02:25:34;2.47;;;1.90;;
35028;SDS011;35394;54.282;10.070;2024-02-15T02:26:05;2.67;;;2.00;;
35028;SDS011;35394;54.282;10.070;2024-02-15T02:26:35;2.55;;;2.15;;
35028;SDS011;35394;54.282;10.070;2024-02-15T02:27:07;2.72;;;2.20;;
35028;SDS011;35394;54.282;10.070;2024-02-15T02:27:38;2.70;;;2.17;;
35028;SDS011;35394;54.282;10.070;2024-02-15T02:28:09;2.90;;;2.30;;
35028;SDS011;35394;54.282;10.070;2024-02-15T02:28:40;2.50;;;2.05;;
35028;SDS011;35394;54.282;10.070;2024-02-15T02:29:11;2.67;;;2.10;;
35028;SDS011;35394;54.282;10.070;2024-02-15T02:29:43;3.22;;;2.50;;
35028;SDS011;35394;54.282;10.070;2024-02-15T02:30:16;2.95;;;2.30;;
35028;SDS011;35394;54.282;10.070;2024-02-15T02:30:51;2.72;;;2.20;;
35028;SDS011;35394;54.282;10.070;2024-02-15T02:31:23;2.60;;;2.20;;
35028;SDS011;35394;54.282;10.070;2024-02-15T02:31:54;2.90;;;2.30;;
35028;SDS011;35394;54.282;10.070;2024-02-15T02:32:28;2.70;;;2.10;;
35028;SDS011;35394;54.282;10.070;2024-02-15T02:32:59;2.58;;;2.10;;
35028;SDS011;35394;54.282;10.070;2024-02-15T02:33:29;2.70;;;2.07;;
35028;SDS011;35394;54.282;10.070;2024-02-15T02:34:00;2.78;;;2.17;;
35028;SDS011;35394;54.282;10.070;2024-02-15T02:34:31;2.27;;;1.90;;
35028;SDS011;35394;54.282;10.070;2024-02-15T02:35:02;2.83;;;2.30;;
35028;SDS011;35394;54.282;10.070;2024-02-15T02:35:33;2.58;;;1.98;;
35028;SDS011;35394;54.282;10.070;2024-02-15T02:36:04;2.73;;;2.03;;
35028;SDS011;35394;54.282;10.070;2024-02-15T02:36:39;2.80;;;2.30;;
35028;SDS011;35394;54.282;10.070;2024-02-15T02:37:13;2.67;;;2.22;;
35028;SDS011;35394;54.282;10.070;2024-02-15T02:37:44;2.43;;;1.90;;
35028;SDS011;35394;54.282;10.070;2024-02-15T02:38:15;2.53;;;2.00;;
35028;SDS011;35394;54.282;10.070;2024-02-15T02:38:45;2.60;;;2.08;;
35028;SDS011;35394;54.282;10.070;2024-02-15T02:39:19;2.88;;;2.10;;
35028;SDS011;35394;54.282;10.070;2024-02-15T02:39:52;2.50;;;2.15;;
35028;SDS011;35394;54.282;10.070;2024-02-15T02:40:23;2.80;;;2.17;;
35028;SDS011;35394;54.282;10.070;2024-02-15T02:40:54;2.53;;;2.00;;
35028;SDS011;35394;54.282;10.070;2024-02-15T02:41:24;2.58;;;2.10;;
35028;SDS011;35394;54.282;10.070;2024-02-15T02:41:55;2.73;;;2.13;;
35028;SDS011;35394;54.282;10.070;2024-02-15T02:42:25;2.63;;;2.13;;
35028;SDS011;35394;54.282;10.070;2024-02-15T02:42:56;2.45;;;2.03;;
35028;SDS011;35394;54.282;10.070;2024-02-15T02:43:29;2.40;;;1.98;;
35028;SDS011;35394;54.282;10.070;2024-02-15T02:44:00;2.50;;;2.00;;
35028;SDS011;35394;54.282;10.070;2024-02-15T02:44:30;2.27;;;1.83;;
35028;SDS011;35394;54.282;10.070;2024-02-15T02:45:01;2.50;;;2.00;;
35028;SDS011;35394;54.282;10.070;2024-02-15T02:45:32;2.60;;;2.10;;
35028;SDS011;35394;54.282;10.070;2024-02-15T02:46:02;2.58;;;2.17;;
35028;SDS011;35394;54.282;10.070;2024-02-15T02:46:35;2.65;;;2.10;;
35028;SDS011;35394;54.282;10.070;2024-02-15T02:47:06;2.38;;;1.98;;
35028;SDS011;35394;54.282;10.070;2024-02-15T02:47:37;2.80;;;2.10;;
35028;SDS011;35394;54.282;10.070;2024-02-15T02:48:07;2.30;;;1.90;;
35028;SDS011;35394;54.282;10.070;2024-02-15T02:48:38;2.65;;;2.05;;
35028;SDS011;35394;54.282;10.070;2024-02-15T02:49:09;2.33;;;2.00;;
35028;SDS011;35394;54.282;10.070;2024-02-15T02:49:39;2.50;;;1.90;;
35028;SDS011;35394;54.282;10.070;2024-02-15T02:50:10;1.98;;;1.70;;
35028;SDS011;35394;54.282;10.070;2024-02-15T02:50:41;2.40;;;2.00;;
35028;SDS011;35394;54.282;10.070;2024-02-15T02:51:12;2.40;;;1.90;;
35028;SDS011;35394;54.282;10.070;2024-02-15T02:51:42;2.77;;;2.20;;
35028;SDS011;35394;54.282;10.070;2024-02-15T02:52:13;2.72;;;2.05;;
35028;SDS011;35394;54.282;10.070;2024-02-15T02:52:44;2.43;;;2.00;;
35028;SDS011;35394;54.282;10.070;2024-02-15T02:53:14;2.50;;;2.10;;
35028;SDS011;35394;54.282;10.070;2024-02-15T02:53:45;2.30;;;1.90;;
35028;SDS011;35394;54.282;10.070;2024-02-15T02:54:15;2.40;;;1.90;;
35028;SDS011;35394;54.282;10.070;2024-02-15T02:54:46;2.30;;;1.90;;
35028;SDS011;35394;54.282;10.070;2024-02-15T02:55:17;2.30;;;2.00;;
35028;SDS011;35394;54.282;10.070;2024-02-15T02:55:47;2.55;;;1.90;;
35028;SDS011;35394;54.282;10.070;2024-02-15T02:56:18;2.40;;;2.00;;
35028;SDS011;35394;54.282;10.070;2024-02-15T02:56:48;2.57;;;2.00;;
35028;SDS011;35394;54.282;10.070;2024-02-15T02:57:19;2.63;;;2.10;;
35028;SDS011;35394;54.282;10.070;2024-02-15T02:57:50;2.78;;;2.20;;
35028;SDS011;35394;54.282;10.070;2024-02-15T02:58:23;2.90;;;2.20;;
35028;SDS011;35394;54.282;10.070;2024-02-15T02:58:53;2.73;;;2.10;;
35028;SDS011;35394;54.282;10.070;2024-02-15T02:59:24;2.83;;;2.10;;
35028;SDS011;35394;54.282;10.070;2024-02-15T02:59:55;2.55;;;1.95;;
35028;SDS011;35394;54.282;10.070;2024-02-15T03:00:25;2.80;;;2.10;;
35028;SDS011;35394;54.282;10.070;2024-02-15T03:00:57;2.22;;;1.80;;
35028;SDS011;35394;54.282;10.070;2024-02-15T03:01:30;2.20;;;1.80;;
35028;SDS011;35394;54.282;10.070;2024-02-15T03:02:01;2.47;;;2.00;;
35028;SDS011;35394;54.282;10.070;2024-02-15T03:02:36;2.65;;;2.15;;
35028;SDS011;35394;54.282;10.070;2024-02-15T03:03:07;2.55;;;2.00;;
35028;SDS011;35394;54.282;10.070;2024-02-15T03:03:37;2.57;;;2.00;;
35028;SDS011;35394;54.282;10.070;2024-02-15T03:04:09;2.38;;;1.98;;
35028;SDS011;35394;54.282;10.070;2024-02-15T03:04:42;2.60;;;2.00;;
35028;SDS011;35394;54.282;10.070;2024-02-15T03:05:13;2.30;;;1.90;;
35028;SDS011;35394;54.282;10.070;2024-02-15T03:05:44;2.33;;;1.90;;
35028;SDS011;35394;54.282;10.070;2024-02-15T03:06:15;2.30;;;1.90;;